createdAt,value
2022-10-10T00:00:05.683Z,4.13
2022-10-10T00:02:33.194Z,3.40
2022-10-10T00:05:00.587Z,3.27
2022-10-10T00:07:27.991Z,3.17
2022-10-10T00:09:56.684Z,3.23
2022-10-10T00:12:24.086Z,2.87
2022-10-10T00:14:51.538Z,3.53
2022-10-10T00:17:18.924Z,3.60
2022-10-10T00:19:46.316Z,3.13
2022-10-10T00:22:13.679Z,3.70
2022-10-10T00:24:41.080Z,3.10
2022-10-10T00:27:09.811Z,2.70
2022-10-10T00:29:37.213Z,3.57
2022-10-10T00:32:04.967Z,2.93
2022-10-10T00:34:32.397Z,2.60
2022-10-10T00:36:59.780Z,3.80
2022-10-10T00:39:27.278Z,2.77
2022-10-10T00:41:54.724Z,2.90
2022-10-10T00:44:23.819Z,3.57
2022-10-10T00:46:51.193Z,2.67
2022-10-10T00:49:21.885Z,3.10
2022-10-10T00:51:52.136Z,3.10
2022-10-10T00:54:23.313Z,3.50
2022-10-10T00:56:54.574Z,3.70
2022-10-10T00:59:25.754Z,3.40
2022-10-10T01:01:53.208Z,3.17
2022-10-10T01:04:33.294Z,2.77
2022-10-10T01:07:02.752Z,3.20
2022-10-10T01:09:31.176Z,9.00
2022-10-10T01:12:05.678Z,4.17
2022-10-10T01:14:41.306Z,2.97
2022-10-10T01:17:19.028Z,3.17
2022-10-10T01:20:13.054Z,3.00
2022-10-10T01:22:57.228Z,2.70
2022-10-10T01:25:29.984Z,2.80
2022-10-10T01:28:02.467Z,2.67
2022-10-10T01:30:31.954Z,3.20
2022-10-10T01:33:07.677Z,2.80
2022-10-10T01:35:46.291Z,3.10
2022-10-10T01:38:26.290Z,3.00
2022-10-10T01:41:00.192Z,3.10
2022-10-10T01:43:27.629Z,3.13
2022-10-10T01:45:56.366Z,3.50
2022-10-10T01:48:28.399Z,2.63
2022-10-10T01:51:27.969Z,2.87
2022-10-10T01:54:06.109Z,3.20
2022-10-10T01:56:42.814Z,3.83
2022-10-10T01:59:30.068Z,3.20
2022-10-10T02:02:06.368Z,3.37
2022-10-10T02:04:39.612Z,3.00
2022-10-10T02:07:11.886Z,3.20
2022-10-10T02:09:42.965Z,3.07
2022-10-10T02:12:13.469Z,3.20
2022-10-10T02:14:44.350Z,3.10
2022-10-10T02:17:16.013Z,3.07
2022-10-10T02:19:47.070Z,3.17
2022-10-10T02:22:15.009Z,3.03
2022-10-10T02:24:43.012Z,2.73
2022-10-10T02:27:17.916Z,3.17
2022-10-10T02:29:47.089Z,3.33
2022-10-10T02:32:22.545Z,3.20
2022-10-10T02:34:54.343Z,3.17
2022-10-10T02:37:22.894Z,3.10
2022-10-10T02:39:54.284Z,3.30
2022-10-10T02:42:24.450Z,3.60
2022-10-10T02:44:52.453Z,3.00
2022-10-10T02:47:21.309Z,3.07
2022-10-10T02:49:49.180Z,3.33
2022-10-10T02:52:17.425Z,3.23
2022-10-10T02:54:44.934Z,2.70
2022-10-10T02:57:12.818Z,3.33
2022-10-10T02:59:40.425Z,2.93
2022-10-10T03:02:08.274Z,3.73
2022-10-10T03:04:37.510Z,3.23
2022-10-10T03:07:05.678Z,3.50
2022-10-10T03:09:33.485Z,3.40
2022-10-10T03:12:00.851Z,4.20
2022-10-10T03:14:28.255Z,3.37
2022-10-10T03:16:55.806Z,3.53
2022-10-10T03:19:23.406Z,3.43
2022-10-10T03:21:52.100Z,3.33
2022-10-10T03:24:19.517Z,4.00
2022-10-10T03:26:46.883Z,4.03
2022-10-10T03:29:14.285Z,3.50
2022-10-10T03:31:41.680Z,4.00
2022-10-10T03:34:09.030Z,3.40
2022-10-10T03:36:36.408Z,3.63
2022-10-10T03:39:05.653Z,3.67
2022-10-10T03:41:33.065Z,3.17
2022-10-10T03:44:00.453Z,3.37
2022-10-10T03:46:27.869Z,3.80
2022-10-10T03:48:55.395Z,3.50
2022-10-10T03:51:23.121Z,4.63
2022-10-10T03:53:50.555Z,3.60
2022-10-10T03:56:19.352Z,3.93
2022-10-10T03:58:46.783Z,3.23
2022-10-10T04:01:14.321Z,3.50
2022-10-10T04:03:41.843Z,3.20
2022-10-10T04:06:09.535Z,3.60
2022-10-10T04:08:36.939Z,3.83
2022-10-10T04:11:04.437Z,3.80
2022-10-10T04:13:33.132Z,3.80
2022-10-10T04:16:00.554Z,3.70
2022-10-10T04:18:28.056Z,3.60
2022-10-10T04:20:55.487Z,3.47
2022-10-10T04:23:22.972Z,3.40
2022-10-10T04:25:52.447Z,3.90
2022-10-10T04:28:20.035Z,4.00
2022-10-10T04:30:48.863Z,3.67
2022-10-10T04:33:16.227Z,3.47
2022-10-10T04:35:43.607Z,4.10
2022-10-10T04:38:10.955Z,3.30
2022-10-10T04:40:38.612Z,3.90
2022-10-10T04:43:06.045Z,3.90
2022-10-10T04:45:37.311Z,3.43
2022-10-10T04:48:06.582Z,3.73
2022-10-10T04:50:34.194Z,3.73
2022-10-10T04:53:01.581Z,3.67
2022-10-10T04:55:29.006Z,4.10
2022-10-10T04:57:56.405Z,4.17
2022-10-10T05:00:23.995Z,4.23
2022-10-10T05:02:51.683Z,3.43
2022-10-10T05:05:20.608Z,3.80
2022-10-10T05:07:50.726Z,3.50
2022-10-10T05:10:21.989Z,3.63
2022-10-10T05:12:49.772Z,4.43
2022-10-10T05:15:17.498Z,3.67
2022-10-10T05:17:45.125Z,3.87
2022-10-10T05:20:12.762Z,3.50
2022-10-10T05:22:41.460Z,3.60
2022-10-10T05:25:09.365Z,3.80
2022-10-10T05:27:36.724Z,3.83
2022-10-10T05:30:04.511Z,3.80
2022-10-10T05:32:32.085Z,4.37
2022-10-10T05:34:59.546Z,3.90
2022-10-10T05:37:26.962Z,4.33
2022-10-10T05:39:55.663Z,3.90
2022-10-10T05:42:23.234Z,4.00
2022-10-10T05:44:50.711Z,4.07
2022-10-10T05:47:18.249Z,5.23
2022-10-10T05:49:45.709Z,3.70
2022-10-10T05:52:13.092Z,4.27
2022-10-10T05:54:40.518Z,4.40
2022-10-10T05:57:13.953Z,4.27
2022-10-10T05:59:43.544Z,3.93
2022-10-10T06:02:13.280Z,4.30
2022-10-10T06:04:40.719Z,5.40
2022-10-10T06:07:09.516Z,4.60
2022-10-10T06:09:36.934Z,5.47
2022-10-10T06:12:04.488Z,3.93
2022-10-10T06:14:33.227Z,4.83
2022-10-10T06:17:00.614Z,4.70
2022-10-10T06:19:28.009Z,4.40
2022-10-10T06:21:55.414Z,4.17
2022-10-10T06:24:22.774Z,5.10
2022-10-10T06:26:50.199Z,4.53
2022-10-10T06:29:17.616Z,4.00
2022-10-10T06:31:46.331Z,5.03
2022-10-10T06:34:13.891Z,4.93
2022-10-10T06:36:41.268Z,4.67
2022-10-10T06:39:08.695Z,4.40
2022-10-10T06:41:36.111Z,4.87
2022-10-10T06:44:03.980Z,4.47
2022-10-10T06:46:34.195Z,4.60
2022-10-10T06:49:02.969Z,4.33
2022-10-10T06:51:30.398Z,4.67
2022-10-10T06:53:58.573Z,6.63
2022-10-10T06:56:27.992Z,4.80
2022-10-10T06:58:56.262Z,5.23
2022-10-10T07:01:25.595Z,6.40
2022-10-10T07:03:53.518Z,5.90
2022-10-10T07:06:22.742Z,4.83
2022-10-10T07:08:50.148Z,4.13
2022-10-10T07:11:17.586Z,4.50
2022-10-10T07:13:44.982Z,4.57
2022-10-10T07:16:12.441Z,4.53
2022-10-10T07:18:39.836Z,4.53
2022-10-10T07:21:07.600Z,4.17
2022-10-10T07:23:36.928Z,4.27
2022-10-10T07:26:06.886Z,4.20
2022-10-10T07:28:35.026Z,4.67
2022-10-10T07:31:04.911Z,4.60
2022-10-10T07:33:33.396Z,4.60
2022-10-10T07:36:01.237Z,4.77
2022-10-10T07:38:29.001Z,4.37
2022-10-10T07:40:57.928Z,4.37
2022-10-10T07:43:25.330Z,4.47
2022-10-10T07:45:52.760Z,4.47
2022-10-10T07:48:20.186Z,4.57
2022-10-10T07:50:47.629Z,4.50
2022-10-10T07:53:15.064Z,4.30
2022-10-10T07:55:43.446Z,4.23
2022-10-10T07:58:12.862Z,4.67
2022-10-10T08:00:42.011Z,4.57
2022-10-10T08:03:12.053Z,4.17
2022-10-10T08:05:41.220Z,3.83
2022-10-10T08:08:08.661Z,4.60
2022-10-10T08:10:36.249Z,3.97
2022-10-10T08:13:03.835Z,3.80
2022-10-10T08:15:34.038Z,4.10
2022-10-10T08:18:01.637Z,4.33
2022-10-10T08:20:29.043Z,5.40
2022-10-10T08:22:56.474Z,4.20
2022-10-10T08:25:24.047Z,4.50
2022-10-10T08:27:51.458Z,4.40
2022-10-10T08:30:19.062Z,3.83
2022-10-10T08:32:47.808Z,4.17
2022-10-10T08:35:15.308Z,4.60
2022-10-10T08:37:42.778Z,4.67
2022-10-10T08:40:15.352Z,4.90
2022-10-10T08:42:52.665Z,4.20
2022-10-10T08:45:23.730Z,15.17
2022-10-10T08:47:57.788Z,24.87
2022-10-10T08:50:30.058Z,15.73
2022-10-10T08:52:59.957Z,13.70
2022-10-10T08:55:33.084Z,4.27
2022-10-10T08:58:06.484Z,15.80
2022-10-10T09:00:39.465Z,9.67
2022-10-10T09:03:19.778Z,7.83
2022-10-10T09:06:01.952Z,4.13
2022-10-10T09:08:37.772Z,9.23
2022-10-10T09:11:17.642Z,8.40
2022-10-10T09:13:52.553Z,6.67
2022-10-10T09:16:31.396Z,6.20
2022-10-10T09:19:12.502Z,4.80
2022-10-10T09:21:44.425Z,6.27
2022-10-10T09:24:18.126Z,5.13
2022-10-10T09:26:49.753Z,5.93
2022-10-10T09:29:30.258Z,4.97
2022-10-10T09:32:01.590Z,3.83
2022-10-10T09:34:36.844Z,4.30
2022-10-10T09:37:13.749Z,3.27
2022-10-10T09:39:49.248Z,3.10
2022-10-10T09:42:22.131Z,3.33
2022-10-10T09:44:49.497Z,3.00
2022-10-10T09:47:18.241Z,3.53
2022-10-10T09:49:47.223Z,3.43
2022-10-10T09:52:26.912Z,3.67
2022-10-10T09:54:58.399Z,2.90
2022-10-10T09:57:30.430Z,2.73
2022-10-10T10:00:02.250Z,4.03
2022-10-10T10:02:31.948Z,3.57
2022-10-10T10:05:00.700Z,3.63
2022-10-10T10:07:29.980Z,4.57
2022-10-10T10:10:00.181Z,4.00
2022-10-10T10:12:31.980Z,3.80
2022-10-10T10:15:02.927Z,3.00
2022-10-10T10:17:30.904Z,3.23
2022-10-10T10:19:58.381Z,3.33
2022-10-10T10:22:39.608Z,3.17
2022-10-10T10:25:31.724Z,3.80
2022-10-10T10:28:16.741Z,4.47
2022-10-10T10:30:46.169Z,3.30
2022-10-10T10:33:25.101Z,3.57
2022-10-10T10:36:00.865Z,3.00
2022-10-10T10:38:43.592Z,3.20
2022-10-10T10:41:24.174Z,2.73
2022-10-10T10:44:04.854Z,3.27
2022-10-10T10:46:44.620Z,3.93
2022-10-10T10:49:17.962Z,3.10
2022-10-10T10:52:08.123Z,3.23
2022-10-10T10:54:51.567Z,4.73
2022-10-10T10:57:45.597Z,3.20
2022-10-10T11:01:20.220Z,3.20
2022-10-10T11:05:18.452Z,3.20
2022-10-10T11:06:23.197Z,3.50
2022-10-10T11:09:00.011Z,3.53
2022-10-10T11:11:38.047Z,3.40
2022-10-10T11:14:16.024Z,3.47
2022-10-10T11:16:49.106Z,2.90
2022-10-10T11:19:26.189Z,3.30
2022-10-10T11:22:00.318Z,3.00
2022-10-10T11:24:37.376Z,2.90
2022-10-10T11:27:12.958Z,3.43
2022-10-10T11:29:51.924Z,3.27
2022-10-10T11:32:25.309Z,3.00
2022-10-10T11:35:02.310Z,2.90
2022-10-10T11:37:33.962Z,3.03
2022-10-10T11:40:05.852Z,3.93
2022-10-10T11:42:43.561Z,3.00
2022-10-10T11:45:17.743Z,3.13
2022-10-10T11:47:51.327Z,2.73
2022-10-10T11:50:24.674Z,2.77
2022-10-10T11:52:59.816Z,3.13
2022-10-10T11:55:32.296Z,2.80
2022-10-10T11:58:25.435Z,2.93
2022-10-10T12:00:55.965Z,3.57
2022-10-10T12:03:25.219Z,3.63
2022-10-10T12:05:58.743Z,2.90
2022-10-10T12:08:35.107Z,2.73
2022-10-10T12:11:10.356Z,3.50
2022-10-10T12:13:42.517Z,3.23
2022-10-10T12:16:13.616Z,2.67
2022-10-10T12:18:44.469Z,2.83
2022-10-10T12:21:14.428Z,3.10
2022-10-10T12:23:43.637Z,2.83
2022-10-10T12:26:16.249Z,2.97
2022-10-10T12:29:03.495Z,3.37
2022-10-10T12:31:38.257Z,4.03
2022-10-10T12:34:34.180Z,4.00
2022-10-10T12:37:23.284Z,3.50
2022-10-10T12:40:19.947Z,3.07
2022-10-10T12:43:21.879Z,3.73
2022-10-10T12:46:15.491Z,3.60
2022-10-10T12:48:43.573Z,2.87
2022-10-10T12:51:22.521Z,3.03
2022-10-10T12:53:54.288Z,14.53
2022-10-10T12:56:37.484Z,8.30
2022-10-10T12:59:07.617Z,4.20
2022-10-10T13:01:47.051Z,3.20
2022-10-10T13:04:17.249Z,3.40
2022-10-10T13:06:46.530Z,3.00
2022-10-10T13:09:20.046Z,4.00
2022-10-10T13:11:52.400Z,4.00
2022-10-10T13:14:19.796Z,3.47
2022-10-10T13:16:48.520Z,3.70
2022-10-10T13:19:21.582Z,4.33
2022-10-10T13:21:51.139Z,3.67
2022-10-10T13:24:21.233Z,3.70
2022-10-10T13:26:51.104Z,3.80
2022-10-10T13:29:27.003Z,3.83
2022-10-10T13:32:00.455Z,3.60
2022-10-10T13:34:32.277Z,4.17
2022-10-10T13:37:02.137Z,3.70
2022-10-10T13:39:31.938Z,3.70
2022-10-10T13:42:00.051Z,3.90
2022-10-10T13:44:33.637Z,3.70
2022-10-10T13:47:43.083Z,3.63
2022-10-10T13:50:19.740Z,3.43
2022-10-10T13:52:47.353Z,3.80
2022-10-10T13:55:17.022Z,3.67
2022-10-10T13:57:44.493Z,4.00
2022-10-10T14:00:27.403Z,3.90
2022-10-10T14:02:56.160Z,3.90
2022-10-10T14:05:28.732Z,4.40
2022-10-10T14:07:57.155Z,4.23
2022-10-10T14:10:27.081Z,4.20
2022-10-10T14:12:57.277Z,4.17
2022-10-10T14:15:34.800Z,4.27
2022-10-10T14:18:09.310Z,4.20
2022-10-10T14:20:36.708Z,5.20
2022-10-10T14:23:04.898Z,3.90
2022-10-10T14:25:32.336Z,3.63
2022-10-10T14:27:59.848Z,3.50
2022-10-10T14:30:27.231Z,3.57
2022-10-10T14:32:54.672Z,4.10
2022-10-10T14:35:23.372Z,3.90
2022-10-10T14:37:50.788Z,4.13
2022-10-10T14:40:20.492Z,4.10
2022-10-10T14:42:47.935Z,3.70
2022-10-10T14:45:16.938Z,4.73
2022-10-10T14:47:44.363Z,4.27
2022-10-10T14:50:16.247Z,4.30
2022-10-10T14:52:45.032Z,9.00
2022-10-10T14:55:13.618Z,5.07
2022-10-10T14:57:41.340Z,4.30
2022-10-10T15:00:14.119Z,4.40
2022-10-10T15:02:45.446Z,3.80
2022-10-10T15:05:13.567Z,4.00
2022-10-10T15:07:41.295Z,3.80
2022-10-10T15:10:33.387Z,4.17
2022-10-10T15:13:00.097Z,4.43
2022-10-10T15:15:27.633Z,4.17
2022-10-10T15:17:55.091Z,4.00
2022-10-10T15:20:25.542Z,3.80
2022-10-10T15:22:54.685Z,3.40
2022-10-10T15:25:23.509Z,4.43
2022-10-10T15:27:51.309Z,4.13
2022-10-10T15:30:18.834Z,4.37
2022-10-10T15:32:47.824Z,4.23
2022-10-10T15:35:17.246Z,4.70
2022-10-10T15:37:45.417Z,4.87
2022-10-10T15:40:15.942Z,4.60
2022-10-10T15:42:44.907Z,3.80
2022-10-10T15:45:12.593Z,4.67
2022-10-10T15:47:45.528Z,4.50
2022-10-10T15:50:14.176Z,4.03
2022-10-10T15:52:41.580Z,5.17
2022-10-10T15:55:09.788Z,4.10
2022-10-10T15:57:37.446Z,4.47
2022-10-10T16:00:07.682Z,4.83
2022-10-10T16:02:35.104Z,4.37
2022-10-10T16:05:04.095Z,5.10
2022-10-10T16:07:36.499Z,5.63
2022-10-10T16:10:08.883Z,4.67
2022-10-10T16:12:36.342Z,5.40
2022-10-10T16:15:07.059Z,5.90
2022-10-10T16:17:36.256Z,5.63
2022-10-10T16:20:04.574Z,5.10
2022-10-10T16:22:32.371Z,5.10
2022-10-10T16:27:47.513Z,5.27
2022-10-10T16:30:16.378Z,5.03
2022-10-10T16:32:45.087Z,6.77
2022-10-10T16:35:12.506Z,6.37
2022-10-10T16:37:40.346Z,5.03
2022-10-10T16:40:08.911Z,6.23
2022-10-10T16:42:36.546Z,6.53
2022-10-10T16:45:04.335Z,5.90
2022-10-10T16:47:31.753Z,6.50
2022-10-10T16:50:00.520Z,5.90
2022-10-10T16:52:27.969Z,7.70
2022-10-10T16:54:55.376Z,6.50
2022-10-10T16:57:22.773Z,7.57
2022-10-10T16:59:50.132Z,8.07
2022-10-10T17:02:17.605Z,7.50
2022-10-10T17:04:44.994Z,8.53
2022-10-10T17:07:13.767Z,7.33
2022-10-10T17:09:41.213Z,7.10
2022-10-10T17:12:08.614Z,8.20
2022-10-10T17:14:36.087Z,7.20
2022-10-10T17:17:12.497Z,7.10
2022-10-10T17:19:40.732Z,6.13
2022-10-10T17:22:08.211Z,6.77
2022-10-10T17:24:37.271Z,7.97
2022-10-10T17:27:05.092Z,6.80
2022-10-10T17:29:32.656Z,7.97
2022-10-10T17:32:05.599Z,6.67
2022-10-10T17:34:33.544Z,6.03
2022-10-10T17:37:01.024Z,6.63
2022-10-10T17:39:28.487Z,7.33
2022-10-10T17:41:57.278Z,7.83
2022-10-10T17:44:25.892Z,8.67
2022-10-10T17:46:53.404Z,8.17
2022-10-10T17:49:20.945Z,7.50
2022-10-10T17:51:48.707Z,8.00
2022-10-10T17:54:16.183Z,8.83
2022-10-10T17:56:44.577Z,7.90
2022-10-10T17:59:13.834Z,8.70
2022-10-10T18:01:41.487Z,7.70
2022-10-10T18:04:09.154Z,7.93
2022-10-10T18:06:37.839Z,7.60
2022-10-10T18:09:05.771Z,10.67
2022-10-10T18:11:33.379Z,8.30
2022-10-10T18:14:01.276Z,8.67
2022-10-10T18:16:33.664Z,7.83
2022-10-10T18:19:01.257Z,7.53
2022-10-10T18:21:29.223Z,7.30
2022-10-10T18:23:56.803Z,8.27
2022-10-10T18:26:26.976Z,7.30
2022-10-10T18:28:55.688Z,7.50
2022-10-10T18:31:25.669Z,7.67
2022-10-10T18:33:54.841Z,8.20
2022-10-10T18:36:26.239Z,7.57
2022-10-10T18:38:53.736Z,7.27
2022-10-10T18:41:23.023Z,6.43
2022-10-10T18:43:51.782Z,8.27
2022-10-10T18:46:22.501Z,7.27
2022-10-10T18:48:53.767Z,9.13
2022-10-10T18:51:25.188Z,9.10
2022-10-10T18:53:55.758Z,8.90
2022-10-10T18:56:24.602Z,8.70
2022-10-10T18:58:54.591Z,7.73
2022-10-10T19:01:24.779Z,9.23
2022-10-10T19:03:53.047Z,6.87
2022-10-10T19:06:21.022Z,7.67
2022-10-10T19:08:51.394Z,7.70
2022-10-10T19:11:21.194Z,8.13
2022-10-10T19:13:49.303Z,8.97
2022-10-10T19:16:17.343Z,7.90
2022-10-10T19:18:45.161Z,8.30
2022-10-10T19:21:13.677Z,8.83
2022-10-10T19:23:41.142Z,7.60
2022-10-10T19:26:11.569Z,7.53
2022-10-10T19:28:39.033Z,10.17
2022-10-10T19:31:08.681Z,11.47
2022-10-10T19:33:36.215Z,13.07
2022-10-10T19:36:06.637Z,13.47
2022-10-10T19:38:35.321Z,11.20
2022-10-10T19:41:06.488Z,10.07
2022-10-10T19:43:36.151Z,9.90
2022-10-10T19:46:07.059Z,8.57
2022-10-10T19:48:36.910Z,7.10
2022-10-10T19:51:05.077Z,7.77
2022-10-10T19:53:33.432Z,7.37
2022-10-10T19:56:02.845Z,6.90
2022-10-10T19:58:30.636Z,6.67
2022-10-10T20:00:59.434Z,6.97
2022-10-10T20:03:27.004Z,7.07
2022-10-10T20:06:00.453Z,7.10
2022-10-10T20:08:28.100Z,6.87
2022-10-10T20:10:55.569Z,5.77
2022-10-10T20:13:23.103Z,5.93
2022-10-10T20:15:51.136Z,6.30
2022-10-10T20:18:21.812Z,6.53
2022-10-10T20:20:53.092Z,6.00
2022-10-10T20:23:22.796Z,5.43
2022-10-10T20:25:50.812Z,6.10
2022-10-10T20:28:19.648Z,5.73
2022-10-10T20:30:50.027Z,5.33
2022-10-10T20:33:22.337Z,5.40
2022-10-10T20:35:55.124Z,5.50
2022-10-10T20:38:23.610Z,5.17
2022-10-10T20:40:51.068Z,5.53
2022-10-10T20:43:18.481Z,5.27
2022-10-10T20:45:45.996Z,4.53
2022-10-10T20:48:13.452Z,4.83
2022-10-10T20:50:42.466Z,4.80
2022-10-10T20:53:10.784Z,4.70
2022-10-10T20:55:38.212Z,5.23
2022-10-10T20:58:05.607Z,5.60
2022-10-10T21:00:33.004Z,4.77
2022-10-10T21:03:00.440Z,4.90
2022-10-10T21:05:27.967Z,4.97
2022-10-10T21:07:57.659Z,8.40
2022-10-10T21:10:25.054Z,5.00
2022-10-10T21:12:52.425Z,5.00
2022-10-10T21:15:20.024Z,5.10
2022-10-10T21:17:49.501Z,5.13
2022-10-10T21:20:16.958Z,5.50
2022-10-10T21:22:45.087Z,5.00
2022-10-10T21:25:14.685Z,5.00
2022-10-10T21:27:42.102Z,4.60
2022-10-10T21:30:10.171Z,4.33
2022-10-10T21:32:38.495Z,4.90
2022-10-10T21:35:06.781Z,4.77
2022-10-10T21:37:35.482Z,4.77
2022-10-10T21:40:02.859Z,4.80
2022-10-10T21:42:31.612Z,4.40
2022-10-10T21:44:58.975Z,4.50
2022-10-10T21:47:26.415Z,4.53
2022-10-10T21:49:53.942Z,4.67
2022-10-10T21:52:21.654Z,4.50
2022-10-10T21:54:50.467Z,4.67
2022-10-10T21:57:17.844Z,5.30
2022-10-10T21:59:46.545Z,5.50
2022-10-10T22:02:13.935Z,5.47
2022-10-10T22:04:41.544Z,5.33
2022-10-10T22:07:08.940Z,5.37
2022-10-10T22:09:36.324Z,5.70
2022-10-10T22:12:03.874Z,6.27
2022-10-10T22:14:31.257Z,3.43
2022-10-10T22:16:59.956Z,3.60
2022-10-10T22:19:27.404Z,4.10
2022-10-10T22:21:54.787Z,3.60
2022-10-10T22:24:22.154Z,3.60
2022-10-10T22:26:49.508Z,3.77
2022-10-10T22:29:16.947Z,4.40
2022-10-10T22:31:44.336Z,3.47
2022-10-10T22:34:13.571Z,3.63
2022-10-10T22:36:40.982Z,5.20
2022-10-10T22:39:10.955Z,5.63
2022-10-10T22:41:38.453Z,6.07
2022-10-10T22:44:06.052Z,6.00
2022-10-10T22:46:33.790Z,6.20
2022-10-10T22:49:01.342Z,6.73
2022-10-10T22:51:30.088Z,6.63
2022-10-10T22:53:57.525Z,6.27
2022-10-10T22:56:24.903Z,5.37
2022-10-10T22:58:52.437Z,5.23
2022-10-10T23:01:21.902Z,4.53
2022-10-10T23:03:49.748Z,4.00
2022-10-10T23:06:17.224Z,3.90
2022-10-10T23:08:45.927Z,3.73
2022-10-10T23:11:13.307Z,3.57
2022-10-10T23:13:40.684Z,3.67
2022-10-10T23:16:09.038Z,3.50
2022-10-10T23:18:36.563Z,3.23
2022-10-10T23:21:04.145Z,3.80
2022-10-10T23:23:31.518Z,3.30
2022-10-10T23:26:00.256Z,3.40
2022-10-10T23:28:27.805Z,2.90
2022-10-10T23:30:55.261Z,2.60
2022-10-10T23:33:22.678Z,2.27
2022-10-10T23:35:57.878Z,2.70
2022-10-10T23:38:25.419Z,2.67
2022-10-10T23:40:52.852Z,2.07
2022-10-10T23:43:21.639Z,2.70
2022-10-10T23:45:49.455Z,3.20
2022-10-10T23:48:17.396Z,2.47
2022-10-10T23:50:45.635Z,2.13
2022-10-10T23:53:13.121Z,2.07
2022-10-10T23:55:41.007Z,2.13
2022-10-10T23:58:09.423Z,2.30
